Terminal Aerodrome Forecast
Issued by NWS Paducah, KY

Home | Current Version | Previous Version | Graphics & Text | Print | Product List | Glossary On
Versions: 1 2 3 4 5 6 7 8 9 10 11 12 13 14 15
161
FTUS43 KPAH 022320
TAFEVV
TAF
KEVV 022320Z 0300/0324 00000KT P6SM SCT250
     FM031500 06005KT P6SM SCT150 BKN250
     FM032100 04005KT P6SM SCT070 BKN150=

USA.gov is the U.S. government's official web portal to all federal, state and local government web resources and services.